sensor_id;sensor_type;location;lat;lon;timestamp;pressure;altitude;pressure_sealevel;temperature;humidity
81372;BME280;70827;52.206;5.294;2023-08-07T00:01:41;101164.34;;;17.22;66.75
81372;BME280;70827;52.206;5.294;2023-08-07T00:04:06;101163.50;;;17.21;67.09
81372;BME280;70827;52.206;5.294;2023-08-07T00:06:32;101156.91;;;17.09;66.79
81372;BME280;70827;52.206;5.294;2023-08-07T00:08:57;101165.38;;;17.41;66.51
81372;BME280;70827;52.206;5.294;2023-08-07T00:11:23;101157.25;;;17.49;65.69
81372;BME280;70827;52.206;5.294;2023-08-07T00:13:48;101173.19;;;17.66;65.49
81372;BME280;70827;52.206;5.294;2023-08-07T00:16:13;101174.03;;;17.68;65.40
81372;BME280;70827;52.206;5.294;2023-08-07T00:18:39;101170.25;;;17.75;65.21
81372;BME280;70827;52.206;5.294;2023-08-07T00:21:04;101170.06;;;17.56;65.46
81372;BME280;70827;52.206;5.294;2023-08-07T00:23:29;101158.84;;;17.53;65.50
81372;BME280;70827;52.206;5.294;2023-08-07T00:25:55;101167.00;;;17.68;65.05
81372;BME280;70827;52.206;5.294;2023-08-07T00:28:20;101168.91;;;17.63;65.44
81372;BME280;70827;52.206;5.294;2023-08-07T00:30:46;101161.28;;;17.57;65.17
81372;BME280;70827;52.206;5.294;2023-08-07T00:33:11;101154.25;;;17.58;65.32
81372;BME280;70827;52.206;5.294;2023-08-07T00:35:36;101146.06;;;17.67;64.70
81372;BME280;70827;52.206;5.294;2023-08-07T00:38:02;101145.66;;;17.78;64.26
81372;BME280;70827;52.206;5.294;2023-08-07T00:40:27;101133.09;;;17.62;64.40
81372;BME280;70827;52.206;5.294;2023-08-07T00:42:53;101155.22;;;17.79;64.49
81372;BME280;70827;52.206;5.294;2023-08-07T00:45:19;101156.09;;;17.79;64.37
81372;BME280;70827;52.206;5.294;2023-08-07T00:47:46;101155.81;;;17.87;64.11
81372;BME280;70827;52.206;5.294;2023-08-07T00:50:11;101152.09;;;17.92;64.18
81372;BME280;70827;52.206;5.294;2023-08-07T00:52:37;101165.44;;;17.86;64.03
81372;BME280;70827;52.206;5.294;2023-08-07T00:55:03;101153.59;;;17.76;64.44
81372;BME280;70827;52.206;5.294;2023-08-07T00:57:28;101156.91;;;17.81;64.60
81372;BME280;70827;52.206;5.294;2023-08-07T00:59:54;101151.59;;;17.83;64.65
81372;BME280;70827;52.206;5.294;2023-08-07T01:02:20;101160.06;;;17.89;64.58
81372;BME280;70827;52.206;5.294;2023-08-07T01:04:46;101136.78;;;17.82;63.95
81372;BME280;70827;52.206;5.294;2023-08-07T01:07:11;101142.09;;;18.02;64.28
81372;BME280;70827;52.206;5.294;2023-08-07T01:09:36;101142.50;;;17.91;63.88
81372;BME280;70827;52.206;5.294;2023-08-07T01:12:13;101149.03;;;18.03;63.77
81372;BME280;70827;52.206;5.294;2023-08-07T01:14:49;101145.50;;;18.04;63.87
81372;BME280;70827;52.206;5.294;2023-08-07T01:17:17;101145.69;;;17.99;63.83
81372;BME280;70827;52.206;5.294;2023-08-07T01:19:44;101154.03;;;17.87;64.38
81372;BME280;70827;52.206;5.294;2023-08-07T01:22:17;101154.16;;;17.84;64.11
81372;BME280;70827;52.206;5.294;2023-08-07T01:24:47;101159.81;;;17.73;64.22
81372;BME280;70827;52.206;5.294;2023-08-07T01:29:56;101173.59;;;17.79;63.87
81372;BME280;70827;52.206;5.294;2023-08-07T01:32:24;101172.81;;;17.28;65.33
81372;BME280;70827;52.206;5.294;2023-08-07T01:34:51;101138.78;;;17.52;64.25
81372;BME280;70827;52.206;5.294;2023-08-07T01:37:18;101172.59;;;17.83;63.78
81372;BME280;70827;52.206;5.294;2023-08-07T01:39:44;101173.59;;;17.79;63.95
81372;BME280;70827;52.206;5.294;2023-08-07T01:42:11;101170.69;;;17.86;63.79
81372;BME280;70827;52.206;5.294;2023-08-07T01:44:37;101164.53;;;17.87;63.52
81372;BME280;70827;52.206;5.294;2023-08-07T01:47:03;101155.09;;;17.83;63.49
81372;BME280;70827;52.206;5.294;2023-08-07T01:49:28;101179.16;;;17.93;63.54
81372;BME280;70827;52.206;5.294;2023-08-07T01:51:54;101174.56;;;17.99;63.56
81372;BME280;70827;52.206;5.294;2023-08-07T01:54:19;101168.53;;;17.96;63.51
81372;BME280;70827;52.206;5.294;2023-08-07T01:56:45;101178.88;;;18.00;63.25
81372;BME280;70827;52.206;5.294;2023-08-07T01:59:10;101158.31;;;17.90;63.33
81372;BME280;70827;52.206;5.294;2023-08-07T02:01:35;101155.75;;;17.88;63.42
81372;BME280;70827;52.206;5.294;2023-08-07T02:04:01;101163.81;;;17.84;62.96
81372;BME280;70827;52.206;5.294;2023-08-07T02:06:26;101169.72;;;17.89;63.23
81372;BME280;70827;52.206;5.294;2023-08-07T02:08:51;101180.59;;;18.01;63.45
81372;BME280;70827;52.206;5.294;2023-08-07T02:11:17;101189.84;;;17.88;63.80
81372;BME280;70827;52.206;5.294;2023-08-07T02:13:42;101192.00;;;17.77;63.66
81372;BME280;70827;52.206;5.294;2023-08-07T02:16:08;101189.06;;;17.86;63.95
81372;BME280;70827;52.206;5.294;2023-08-07T02:18:33;101177.72;;;17.86;64.09
81372;BME280;70827;52.206;5.294;2023-08-07T02:20:58;101189.72;;;17.91;63.52
81372;BME280;70827;52.206;5.294;2023-08-07T02:23:24;101193.25;;;17.90;63.78
81372;BME280;70827;52.206;5.294;2023-08-07T02:25:50;101192.78;;;17.81;64.47
81372;BME280;70827;52.206;5.294;2023-08-07T02:28:15;101183.41;;;17.73;64.35
81372;BME280;70827;52.206;5.294;2023-08-07T02:30:40;101189.88;;;17.63;65.50
81372;BME280;70827;52.206;5.294;2023-08-07T02:33:06;101189.69;;;17.69;64.83
81372;BME280;70827;52.206;5.294;2023-08-07T02:35:31;101190.44;;;17.73;64.45
81372;BME280;70827;52.206;5.294;2023-08-07T02:37:57;101198.16;;;17.53;65.45
81372;BME280;70827;52.206;5.294;2023-08-07T02:40:22;101194.25;;;17.63;64.73
81372;BME280;70827;52.206;5.294;2023-08-07T02:42:47;101196.00;;;17.64;64.88
81372;BME280;70827;52.206;5.294;2023-08-07T02:45:13;101198.63;;;17.64;64.93
81372;BME280;70827;52.206;5.294;2023-08-07T02:47:38;101193.53;;;17.59;64.69
81372;BME280;70827;52.206;5.294;2023-08-07T02:50:04;101200.78;;;17.53;65.27
81372;BME280;70827;52.206;5.294;2023-08-07T02:52:30;101190.22;;;17.54;65.72
81372;BME280;70827;52.206;5.294;2023-08-07T02:54:55;101196.88;;;17.39;65.81
81372;BME280;70827;52.206;5.294;2023-08-07T02:57:20;101191.19;;;17.52;65.61
81372;BME280;70827;52.206;5.294;2023-08-07T02:59:46;101184.75;;;17.37;66.02
81372;BME280;70827;52.206;5.294;2023-08-07T03:02:11;101186.34;;;17.41;65.63
81372;BME280;70827;52.206;5.294;2023-08-07T03:04:36;101188.97;;;17.41;66.21
81372;BME280;70827;52.206;5.294;2023-08-07T03:07:02;101181.78;;;17.46;65.98
81372;BME280;70827;52.206;5.294;2023-08-07T03:09:27;101178.31;;;17.45;65.87
81372;BME280;70827;52.206;5.294;2023-08-07T03:11:53;101166.13;;;17.21;66.46
81372;BME280;70827;52.206;5.294;2023-08-07T03:14:18;101181.47;;;17.32;66.81
81372;BME280;70827;52.206;5.294;2023-08-07T03:16:45;101166.28;;;17.17;66.17
81372;BME280;70827;52.206;5.294;2023-08-07T03:19:10;101172.94;;;17.25;66.32
81372;BME280;70827;52.206;5.294;2023-08-07T03:21:36;101175.56;;;17.25;66.40
81372;BME280;70827;52.206;5.294;2023-08-07T03:24:01;101185.94;;;17.28;66.31
81372;BME280;70827;52.206;5.294;2023-08-07T03:26:26;101180.06;;;17.22;66.24
81372;BME280;70827;52.206;5.294;2023-08-07T03:28:52;101182.19;;;17.35;66.27
81372;BME280;70827;52.206;5.294;2023-08-07T03:31:17;101166.41;;;17.37;65.97
81372;BME280;70827;52.206;5.294;2023-08-07T03:33:43;101181.03;;;17.19;67.06
81372;BME280;70827;52.206;5.294;2023-08-07T03:36:08;101177.63;;;17.40;66.02
81372;BME280;70827;52.206;5.294;2023-08-07T03:38:34;101188.50;;;17.30;66.56
81372;BME280;70827;52.206;5.294;2023-08-07T03:40:59;101172.63;;;17.34;66.51
81372;BME280;70827;52.206;5.294;2023-08-07T03:43:25;101178.13;;;17.27;66.64
81372;BME280;70827;52.206;5.294;2023-08-07T03:45:57;101187.88;;;17.47;66.32
81372;BME280;70827;52.206;5.294;2023-08-07T03:48:22;101187.50;;;17.57;65.76
81372;BME280;70827;52.206;5.294;2023-08-07T03:50:47;101187.13;;;17.43;65.50
81372;BME280;70827;52.206;5.294;2023-08-07T03:53:13;101187.88;;;17.47;66.01
81372;BME280;70827;52.206;5.294;2023-08-07T03:55:38;101193.69;;;17.55;66.64
81372;BME280;70827;52.206;5.294;2023-08-07T03:58:04;101183.03;;;17.36;66.64
81372;BME280;70827;52.206;5.294;2023-08-07T04:00:30;101173.91;;;17.46;66.31
81372;BME280;70827;52.206;5.294;2023-08-07T04:02:55;101177.81;;;17.36;66.64
81372;BME280;70827;52.206;5.294;2023-08-07T04:05:20;101182.75;;;17.43;66.45
81372;BME280;70827;52.206;5.294;2023-08-07T04:07:46;101186.75;;;17.30;66.25
81372;BME280;70827;52.206;5.294;2023-08-07T04:10:11;101196.22;;;17.34;67.05
81372;BME280;70827;52.206;5.294;2023-08-07T04:12:37;101165.56;;;17.11;67.73
81372;BME280;70827;52.206;5.294;2023-08-07T04:15:02;101190.16;;;17.32;67.24
81372;BME280;70827;52.206;5.294;2023-08-07T04:17:28;101195.28;;;17.35;67.62
81372;BME280;70827;52.206;5.294;2023-08-07T04:19:54;101191.94;;;17.32;67.69
81372;BME280;70827;52.206;5.294;2023-08-07T04:22:19;101189.81;;;17.41;67.60
81372;BME280;70827;52.206;5.294;2023-08-07T04:24:44;101195.41;;;17.32;67.39
81372;BME280;70827;52.206;5.294;2023-08-07T04:27:11;101195.84;;;17.43;67.24
81372;BME280;70827;52.206;5.294;2023-08-07T04:29:37;101204.63;;;17.42;66.95
81372;BME280;70827;52.206;5.294;2023-08-07T04:32:03;101191.47;;;17.44;67.19
81372;BME280;70827;52.206;5.294;2023-08-07T04:34:28;101197.97;;;17.34;67.38
81372;BME280;70827;52.206;5.294;2023-08-07T04:36:53;101210.59;;;17.46;66.97
81372;BME280;70827;52.206;5.294;2023-08-07T04:39:21;101222.72;;;17.50;66.74
81372;BME280;70827;52.206;5.294;2023-08-07T04:41:46;101222.91;;;17.44;66.57
81372;BME280;70827;52.206;5.294;2023-08-07T04:44:12;101222.84;;;17.45;66.97
81372;BME280;70827;52.206;5.294;2023-08-07T04:46:38;101226.56;;;17.40;67.01
81372;BME280;70827;52.206;5.294;2023-08-07T04:49:03;101232.44;;;17.47;66.26
81372;BME280;70827;52.206;5.294;2023-08-07T04:51:28;101232.44;;;17.47;66.42
81372;BME280;70827;52.206;5.294;2023-08-07T04:53:55;101228.69;;;17.54;66.69
81372;BME280;70827;52.206;5.294;2023-08-07T04:56:22;101228.53;;;17.58;66.72
81372;BME280;70827;52.206;5.294;2023-08-07T04:58:47;101230.69;;;17.47;66.31
81372;BME280;70827;52.206;5.294;2023-08-07T05:01:12;101244.75;;;17.44;67.64
81372;BME280;70827;52.206;5.294;2023-08-07T05:03:38;101233.63;;;17.38;67.52
81372;BME280;70827;52.206;5.294;2023-08-07T05:06:03;101251.81;;;17.42;67.47
81372;BME280;70827;52.206;5.294;2023-08-07T05:08:29;101240.09;;;17.03;68.58
81372;BME280;70827;52.206;5.294;2023-08-07T05:10:54;101240.88;;;17.31;67.83
81372;BME280;70827;52.206;5.294;2023-08-07T05:13:19;101251.91;;;17.39;68.21
81372;BME280;70827;52.206;5.294;2023-08-07T05:15:47;101253.13;;;17.29;67.80
81372;BME280;70827;52.206;5.294;2023-08-07T05:18:12;101258.50;;;17.26;68.16
81372;BME280;70827;52.206;5.294;2023-08-07T05:20:38;101256.31;;;17.14;69.05
81372;BME280;70827;52.206;5.294;2023-08-07T05:23:03;101259.69;;;17.18;68.64
81372;BME280;70827;52.206;5.294;2023-08-07T05:25:28;101261.00;;;17.29;68.10
81372;BME280;70827;52.206;5.294;2023-08-07T05:27:54;101258.38;;;17.29;67.76
81372;BME280;70827;52.206;5.294;2023-08-07T05:30:19;101261.16;;;17.25;67.28
81372;BME280;70827;52.206;5.294;2023-08-07T05:32:45;101249.94;;;17.21;67.22
81372;BME280;70827;52.206;5.294;2023-08-07T05:35:10;101270.50;;;17.33;66.68
81372;BME280;70827;52.206;5.294;2023-08-07T05:37:35;101256.66;;;17.28;67.53
81372;BME280;70827;52.206;5.294;2023-08-07T05:40:01;101259.34;;;17.27;67.49
81372;BME280;70827;52.206;5.294;2023-08-07T05:42:27;101271.59;;;17.26;67.17
81372;BME280;70827;52.206;5.294;2023-08-07T05:44:52;101273.16;;;17.32;67.62
81372;BME280;70827;52.206;5.294;2023-08-07T05:47:18;101261.72;;;17.34;67.77
81372;BME280;70827;52.206;5.294;2023-08-07T05:49:44;101282.81;;;17.30;68.72
81372;BME280;70827;52.206;5.294;2023-08-07T05:52:09;101277.56;;;17.31;68.65
81372;BME280;70827;52.206;5.294;2023-08-07T05:54:34;101285.41;;;17.31;68.67
81372;BME280;70827;52.206;5.294;2023-08-07T05:57:00;101285.31;;;17.34;68.35
81372;BME280;70827;52.206;5.294;2023-08-07T05:59:25;101287.06;;;17.34;68.13
81372;BME280;70827;52.206;5.294;2023-08-07T06:01:51;101292.44;;;17.29;67.96
81372;BME280;70827;52.206;5.294;2023-08-07T06:04:17;101283.53;;;17.35;68.02
81372;BME280;70827;52.206;5.294;2023-08-07T06:06:42;101291.97;;;17.43;67.18
81372;BME280;70827;52.206;5.294;2023-08-07T06:09:08;101291.13;;;17.42;67.47
81372;BME280;70827;52.206;5.294;2023-08-07T06:11:34;101295.41;;;17.45;67.60
81372;BME280;70827;52.206;5.294;2023-08-07T06:13:59;101287.47;;;17.47;67.48
81372;BME280;70827;52.206;5.294;2023-08-07T06:16:25;101297.38;;;17.38;67.15
81372;BME280;70827;52.206;5.294;2023-08-07T06:18:50;101300.50;;;17.50;66.75
81372;BME280;70827;52.206;5.294;2023-08-07T06:21:15;101304.81;;;17.51;66.90
81372;BME280;70827;52.206;5.294;2023-08-07T06:23:41;101309.72;;;17.60;66.99
81372;BME280;70827;52.206;5.294;2023-08-07T06:26:07;101297.66;;;17.56;66.49
81372;BME280;70827;52.206;5.294;2023-08-07T06:28:34;101318.34;;;17.63;66.71
81372;BME280;70827;52.206;5.294;2023-08-07T06:31:02;101312.25;;;17.63;65.94
81372;BME280;70827;52.206;5.294;2023-08-07T06:33:27;101311.31;;;17.65;65.69
81372;BME280;70827;52.206;5.294;2023-08-07T06:35:52;101327.75;;;17.70;66.01
81372;BME280;70827;52.206;5.294;2023-08-07T06:38:18;101333.84;;;17.71;66.04
81372;BME280;70827;52.206;5.294;2023-08-07T06:40:44;101321.88;;;17.62;65.49
81372;BME280;70827;52.206;5.294;2023-08-07T06:43:09;101334.59;;;17.74;65.49
81372;BME280;70827;52.206;5.294;2023-08-07T06:45:35;101329.16;;;17.81;65.31
81372;BME280;70827;52.206;5.294;2023-08-07T06:48:00;101328.44;;;17.76;65.39
81372;BME280;70827;52.206;5.294;2023-08-07T06:50:26;101334.38;;;17.81;65.21
81372;BME280;70827;52.206;5.294;2023-08-07T06:52:51;101352.03;;;17.76;64.46
81372;BME280;70827;52.206;5.294;2023-08-07T06:55:16;101346.63;;;17.80;64.52
81372;BME280;70827;52.206;5.294;2023-08-07T06:57:42;101344.22;;;17.74;64.93
81372;BME280;70827;52.206;5.294;2023-08-07T07:00:08;101350.13;;;17.81;64.70
81372;BME280;70827;52.206;5.294;2023-08-07T07:02:36;101339.41;;;17.60;64.47
81372;BME280;70827;52.206;5.294;2023-08-07T07:05:01;101351.22;;;17.73;64.63
81372;BME280;70827;52.206;5.294;2023-08-07T07:07:27;101326.19;;;17.63;64.70
81372;BME280;70827;52.206;5.294;2023-08-07T07:09:52;101347.81;;;17.71;65.33
81372;BME280;70827;52.206;5.294;2023-08-07T07:12:18;101342.16;;;17.57;65.17
81372;BME280;70827;52.206;5.294;2023-08-07T07:14:43;101340.28;;;17.61;64.58
81372;BME280;70827;52.206;5.294;2023-08-07T07:17:09;101374.94;;;17.70;64.65
81372;BME280;70827;52.206;5.294;2023-08-07T07:19:34;101376.66;;;17.71;64.45
81372;BME280;70827;52.206;5.294;2023-08-07T07:21:59;101367.81;;;17.74;64.91
81372;BME280;70827;52.206;5.294;2023-08-07T07:24:25;101372.03;;;17.78;64.23
81372;BME280;70827;52.206;5.294;2023-08-07T07:26:50;101379.09;;;17.76;64.96
81372;BME280;70827;52.206;5.294;2023-08-07T07:29:16;101354.94;;;17.68;65.19
81372;BME280;70827;52.206;5.294;2023-08-07T07:31:42;101376.06;;;17.88;64.92
81372;BME280;70827;52.206;5.294;2023-08-07T07:34:07;101379.66;;;17.86;64.74
81372;BME280;70827;52.206;5.294;2023-08-07T07:36:33;101385.94;;;17.80;64.82
81372;BME280;70827;52.206;5.294;2023-08-07T07:38:58;101377.03;;;17.86;64.20
81372;BME280;70827;52.206;5.294;2023-08-07T07:41:23;101375.31;;;17.85;63.72
81372;BME280;70827;52.206;5.294;2023-08-07T07:43:49;101388.81;;;17.99;64.07
81372;BME280;70827;52.206;5.294;2023-08-07T07:46:14;101385.16;;;18.03;63.81
81372;BME280;70827;52.206;5.294;2023-08-07T07:48:40;101375.47;;;18.05;63.87
81372;BME280;70827;52.206;5.294;2023-08-07T07:51:05;101390.16;;;18.09;64.35
81372;BME280;70827;52.206;5.294;2023-08-07T07:53:31;101392.97;;;18.04;64.11
81372;BME280;70827;52.206;5.294;2023-08-07T07:55:56;101387.03;;;17.99;64.36
81372;BME280;70827;52.206;5.294;2023-08-07T07:58:22;101408.59;;;18.08;64.42
81372;BME280;70827;52.206;5.294;2023-08-07T08:00:48;101402.22;;;17.90;64.05
81372;BME280;70827;52.206;5.294;2023-08-07T08:03:14;101424.69;;;17.98;63.76
81372;BME280;70827;52.206;5.294;2023-08-07T08:05:39;101427.56;;;17.91;64.20
81372;BME280;70827;52.206;5.294;2023-08-07T08:08:05;101432.97;;;17.86;64.86
81372;BME280;70827;52.206;5.294;2023-08-07T08:10:32;101429.22;;;17.93;64.52
81372;BME280;70827;52.206;5.294;2023-08-07T08:12:58;101437.47;;;17.83;64.04
81372;BME280;70827;52.206;5.294;2023-08-07T08:15:23;101437.19;;;17.90;64.69
81372;BME280;70827;52.206;5.294;2023-08-07T08:17:49;101438.72;;;17.96;62.86
81372;BME280;70827;52.206;5.294;2023-08-07T08:20:14;101422.47;;;17.86;63.08
81372;BME280;70827;52.206;5.294;2023-08-07T08:22:42;101431.63;;;17.99;63.70
81372;BME280;70827;52.206;5.294;2023-08-07T08:25:08;101420.59;;;17.90;63.19
81372;BME280;70827;52.206;5.294;2023-08-07T08:27:34;101428.03;;;18.02;62.56
81372;BME280;70827;52.206;5.294;2023-08-07T08:30:00;101428.78;;;18.06;63.33
81372;BME280;70827;52.206;5.294;2023-08-07T08:32:25;101438.09;;;18.14;63.17
81372;BME280;70827;52.206;5.294;2023-08-07T08:34:51;101442.78;;;18.29;63.50
81372;BME280;70827;52.206;5.294;2023-08-07T08:37:17;101440.88;;;18.34;63.57
81372;BME280;70827;52.206;5.294;2023-08-07T08:39:42;101426.81;;;18.36;62.48
81372;BME280;70827;52.206;5.294;2023-08-07T08:42:09;101455.44;;;18.18;61.68
81372;BME280;70827;52.206;5.294;2023-08-07T08:44:36;101451.75;;;18.24;63.73
81372;BME280;70827;52.206;5.294;2023-08-07T08:47:03;101461.16;;;18.29;61.60
81372;BME280;70827;52.206;5.294;2023-08-07T08:49:32;101464.53;;;18.33;61.71
81372;BME280;70827;52.206;5.294;2023-08-07T08:51:58;101478.25;;;18.41;62.96
81372;BME280;70827;52.206;5.294;2023-08-07T08:54:24;101466.81;;;18.42;61.49
81372;BME280;70827;52.206;5.294;2023-08-07T08:56:50;101466.81;;;18.42;61.28
81372;BME280;70827;52.206;5.294;2023-08-07T08:59:16;101472.72;;;18.49;62.08
81372;BME280;70827;52.206;5.294;2023-08-07T09:01:43;101462.72;;;18.35;62.11
81372;BME280;70827;52.206;5.294;2023-08-07T09:04:09;101477.16;;;18.47;61.97
81372;BME280;70827;52.206;5.294;2023-08-07T09:06:35;101474.44;;;18.50;61.80
81372;BME280;70827;52.206;5.294;2023-08-07T09:09:01;101468.31;;;18.49;61.63
81372;BME280;70827;52.206;5.294;2023-08-07T09:11:27;101464.13;;;18.44;60.62
81372;BME280;70827;52.206;5.294;2023-08-07T09:13:53;101474.06;;;18.59;61.15
81372;BME280;70827;52.206;5.294;2023-08-07T09:16:19;101464.72;;;18.52;60.79
81372;BME280;70827;52.206;5.294;2023-08-07T09:18:44;101465.34;;;18.58;59.99
81372;BME280;70827;52.206;5.294;2023-08-07T09:21:10;101465.06;;;18.68;60.90
81372;BME280;70827;52.206;5.294;2023-08-07T09:23:36;101474.53;;;18.72;60.54
81372;BME280;70827;52.206;5.294;2023-08-07T09:26:03;101477.16;;;18.72;58.70
81372;BME280;70827;52.206;5.294;2023-08-07T09:28:29;101491.88;;;18.76;61.57
81372;BME280;70827;52.206;5.294;2023-08-07T09:30:56;101483.44;;;18.68;60.32
81372;BME280;70827;52.206;5.294;2023-08-07T09:33:29;101491.06;;;18.74;59.85
81372;BME280;70827;52.206;5.294;2023-08-07T09:35:59;101497.78;;;18.82;60.50
81372;BME280;70827;52.206;5.294;2023-08-07T09:38:29;101495.16;;;18.81;60.03
81372;BME280;70827;52.206;5.294;2023-08-07T09:41:00;101501.47;;;18.77;59.95
81372;BME280;70827;52.206;5.294;2023-08-07T09:43:26;101492.91;;;18.72;59.84
81372;BME280;70827;52.206;5.294;2023-08-07T09:45:51;101492.09;;;18.70;58.69
81372;BME280;70827;52.206;5.294;2023-08-07T09:48:23;101497.38;;;18.70;58.56
81372;BME280;70827;52.206;5.294;2023-08-07T09:50:49;101506.03;;;18.72;59.42
81372;BME280;70827;52.206;5.294;2023-08-07T09:53:14;101511.97;;;18.77;59.66
81372;BME280;70827;52.206;5.294;2023-08-07T09:55:39;101514.84;;;18.71;58.75
81372;BME280;70827;52.206;5.294;2023-08-07T09:58:07;101524.31;;;18.75;59.39
81372;BME280;70827;52.206;5.294;2023-08-07T10:00:34;101522.34;;;18.80;60.16
81372;BME280;70827;52.206;5.294;2023-08-07T10:03:00;101522.31;;;18.81;60.12
81372;BME280;70827;52.206;5.294;2023-08-07T10:05:26;101511.22;;;18.73;59.06
81372;BME280;70827;52.206;5.294;2023-08-07T10:07:52;101530.75;;;18.89;59.73
81372;BME280;70827;52.206;5.294;2023-08-07T10:10:19;101531.50;;;18.93;60.33
81372;BME280;70827;52.206;5.294;2023-08-07T10:12:45;101534.66;;;19.03;59.84
81372;BME280;70827;52.206;5.294;2023-08-07T10:15:13;101517.16;;;19.02;59.38
81372;BME280;70827;52.206;5.294;2023-08-07T10:17:39;101525.13;;;19.00;59.45
81372;BME280;70827;52.206;5.294;2023-08-07T10:20:05;101509.41;;;18.99;59.59
81372;BME280;70827;52.206;5.294;2023-08-07T10:22:32;101509.09;;;19.06;59.60
81372;BME280;70827;52.206;5.294;2023-08-07T10:25:01;101520.13;;;19.16;59.55
81372;BME280;70827;52.206;5.294;2023-08-07T10:27:31;101510.94;;;19.04;58.70
81372;BME280;70827;52.206;5.294;2023-08-07T10:29:58;101520.59;;;19.04;58.22
81372;BME280;70827;52.206;5.294;2023-08-07T10:32:25;101530.84;;;19.10;58.13
81372;BME280;70827;52.206;5.294;2023-08-07T10:34:51;101515.53;;;18.98;58.83
81372;BME280;70827;52.206;5.294;2023-08-07T10:37:44;101527.50;;;19.06;59.37
81372;BME280;70827;52.206;5.294;2023-08-07T10:40:11;101534.34;;;19.10;59.16
81372;BME280;70827;52.206;5.294;2023-08-07T10:45:22;101527.16;;;19.15;59.10
81372;BME280;70827;52.206;5.294;2023-08-07T10:50:33;101518.56;;;19.10;57.58
81372;BME280;70827;52.206;5.294;2023-08-07T10:53:02;101543.72;;;19.17;58.77
81372;BME280;70827;52.206;5.294;2023-08-07T10:55:47;101556.75;;;19.20;58.30
81372;BME280;70827;52.206;5.294;2023-08-07T10:58:34;101544.63;;;18.93;58.49
81372;BME280;70827;52.206;5.294;2023-08-07T11:03:53;101539.38;;;19.16;57.94
81372;BME280;70827;52.206;5.294;2023-08-07T11:06:24;101541.94;;;19.18;57.85
81372;BME280;70827;52.206;5.294;2023-08-07T11:08:53;101551.69;;;19.14;57.19
81372;BME280;70827;52.206;5.294;2023-08-07T11:11:21;101539.97;;;19.01;56.68
81372;BME280;70827;52.206;5.294;2023-08-07T11:13:46;101563.59;;;19.24;57.42
81372;BME280;70827;52.206;5.294;2023-08-07T11:16:12;101556.50;;;19.27;56.87
81372;BME280;70827;52.206;5.294;2023-08-07T11:18:38;101553.69;;;19.31;57.46
81372;BME280;70827;52.206;5.294;2023-08-07T11:21:10;101563.19;;;19.35;57.52
81372;BME280;70827;52.206;5.294;2023-08-07T11:23:40;101563.31;;;19.32;57.49
81372;BME280;70827;52.206;5.294;2023-08-07T11:26:06;101555.22;;;19.37;57.15
81372;BME280;70827;52.206;5.294;2023-08-07T11:28:32;101550.31;;;19.28;57.87
81372;BME280;70827;52.206;5.294;2023-08-07T11:30:57;101540.53;;;19.31;57.39
81372;BME280;70827;52.206;5.294;2023-08-07T11:33:23;101554.50;;;19.33;57.83
81372;BME280;70827;52.206;5.294;2023-08-07T11:35:49;101549.91;;;19.38;57.93
81372;BME280;70827;52.206;5.294;2023-08-07T11:38:32;101546.38;;;19.39;57.67
81372;BME280;70827;52.206;5.294;2023-08-07T11:41:00;101552.59;;;19.37;56.79
81372;BME280;70827;52.206;5.294;2023-08-07T11:43:27;101549.31;;;19.32;57.13
81372;BME280;70827;52.206;5.294;2023-08-07T11:45:54;101557.22;;;19.30;58.40
81372;BME280;70827;52.206;5.294;2023-08-07T11:48:23;101548.06;;;19.40;58.83
81372;BME280;70827;52.206;5.294;2023-08-07T11:50:48;101551.84;;;19.57;58.05
81372;BME280;70827;52.206;5.294;2023-08-07T11:53:14;101551.06;;;19.55;58.12
81372;BME280;70827;52.206;5.294;2023-08-07T11:55:47;101548.34;;;19.56;55.76
81372;BME280;70827;52.206;5.294;2023-08-07T11:58:12;101558.13;;;19.52;54.96
81372;BME280;70827;52.206;5.294;2023-08-07T12:00:38;101546.53;;;19.58;56.99
81372;BME280;70827;52.206;5.294;2023-08-07T12:03:26;101566.72;;;19.58;58.13
81372;BME280;70827;52.206;5.294;2023-08-07T12:05:53;101550.06;;;19.57;55.48
81372;BME280;70827;52.206;5.294;2023-08-07T12:08:19;101554.16;;;19.64;57.44
81372;BME280;70827;52.206;5.294;2023-08-07T12:10:49;101554.72;;;19.72;55.11
81372;BME280;70827;52.206;5.294;2023-08-07T12:13:15;101533.38;;;19.58;52.39
81372;BME280;70827;52.206;5.294;2023-08-07T12:15:41;101548.00;;;19.65;54.96
81372;BME280;70827;52.206;5.294;2023-08-07T12:18:07;101547.75;;;19.71;53.66
81372;BME280;70827;52.206;5.294;2023-08-07T12:20:36;101553.44;;;19.82;54.63
81372;BME280;70827;52.206;5.294;2023-08-07T12:23:01;101563.97;;;19.82;52.59
81372;BME280;70827;52.206;5.294;2023-08-07T12:25:27;101551.66;;;19.83;55.27
81372;BME280;70827;52.206;5.294;2023-08-07T12:27:52;101560.47;;;19.82;55.86
81372;BME280;70827;52.206;5.294;2023-08-07T12:30:18;101561.13;;;19.87;54.87
81372;BME280;70827;52.206;5.294;2023-08-07T12:32:43;101565.16;;;19.96;54.28
81372;BME280;70827;52.206;5.294;2023-08-07T12:35:08;101569.94;;;19.86;55.66
81372;BME280;70827;52.206;5.294;2023-08-07T12:37:34;101563.56;;;19.92;53.98
81372;BME280;70827;52.206;5.294;2023-08-07T12:39:59;101570.47;;;19.94;55.54
81372;BME280;70827;52.206;5.294;2023-08-07T12:42:25;101538.38;;;19.64;58.05
81372;BME280;70827;52.206;5.294;2023-08-07T12:44:50;101553.47;;;19.81;57.81
81372;BME280;70827;52.206;5.294;2023-08-07T12:47:16;101548.91;;;19.86;54.94
81372;BME280;70827;52.206;5.294;2023-08-07T12:49:41;101554.16;;;19.86;55.37
81372;BME280;70827;52.206;5.294;2023-08-07T12:52:06;101548.91;;;19.86;57.10
81372;BME280;70827;52.206;5.294;2023-08-07T12:54:32;101548.69;;;19.91;56.60
81372;BME280;70827;52.206;5.294;2023-08-07T12:56:57;101557.25;;;19.96;54.98